createdAt,value
2022-11-12T02:33:56.184Z,80.01
2022-11-12T02:39:06.413Z,80.61
2022-11-12T02:44:16.966Z,80.80
2022-11-12T02:49:27.245Z,80.39
2022-11-12T02:54:37.672Z,80.62
2022-11-12T02:59:48.086Z,80.28
2022-11-12T03:04:58.440Z,80.39
2022-11-12T03:10:09.075Z,80.32
2022-11-12T03:15:19.214Z,80.81
2022-11-12T03:20:30.073Z,80.87
2022-11-12T03:25:40.112Z,80.50
2022-11-12T03:30:50.644Z,80.51
2022-11-12T03:36:01.180Z,80.70
2022-11-12T03:41:11.738Z,80.94
2022-11-12T03:46:22.188Z,80.53
2022-11-12T03:51:32.151Z,80.27
2022-11-12T03:56:42.491Z,80.23
2022-11-12T04:01:52.788Z,79.52
2022-11-12T04:07:21.901Z,79.91
2022-11-12T04:12:51.188Z,79.94
2022-11-12T04:18:20.437Z,79.78
2022-11-12T04:23:30.775Z,80.38
2022-11-12T04:29:01.149Z,80.62
2022-11-12T04:34:29.298Z,81.31
2022-11-12T04:39:39.998Z,81.21
2022-11-12T04:45:16.763Z,80.94
2022-11-12T04:50:26.943Z,81.04
2022-11-12T04:55:37.275Z,81.25
2022-11-12T05:00:48.271Z,81.42
2022-11-12T05:06:29.605Z,81.92
2022-11-12T05:11:39.878Z,81.59
2022-11-12T05:16:51.417Z,81.78
2022-11-12T05:22:13.902Z,81.65
2022-11-12T05:27:32.286Z,82.04
2022-11-12T05:32:42.594Z,81.87
2022-11-12T05:37:53.097Z,82.47
2022-11-12T05:43:03.763Z,82.39
2022-11-12T05:48:14.189Z,83.44
2022-11-12T05:53:24.665Z,82.52
2022-11-12T05:58:36.460Z,83.28
2022-11-12T06:03:47.440Z,82.70
2022-11-12T06:08:57.481Z,82.26
2022-11-12T06:14:08.375Z,83.34
2022-11-12T06:19:18.551Z,83.01
2022-11-12T06:24:35.002Z,82.86
2022-11-12T06:29:45.872Z,83.45
2022-11-12T06:34:56.452Z,82.93
2022-11-12T06:40:07.682Z,82.42
2022-11-12T06:45:18.171Z,84.09
2022-11-12T06:50:28.376Z,83.35
2022-11-12T06:55:38.714Z,83.15
2022-11-12T07:00:49.323Z,82.59
2022-11-12T07:06:08.157Z,82.23
2022-11-12T07:11:19.973Z,81.72
2022-11-12T07:16:30.034Z,81.25
2022-11-12T07:21:40.464Z,80.84
2022-11-12T07:26:50.898Z,76.80
2022-11-12T07:32:01.468Z,70.29
2022-11-12T07:37:11.817Z,67.36
2022-11-12T07:42:22.192Z,65.87
2022-11-12T07:47:32.486Z,63.52
2022-11-12T07:52:42.820Z,62.65
2022-11-12T07:57:53.869Z,63.41
2022-11-12T08:03:04.132Z,61.68
2022-11-12T08:08:14.518Z,62.35
2022-11-12T08:13:25.222Z,60.99
2022-11-12T08:18:35.627Z,59.68
2022-11-12T08:23:46.319Z,58.20
2022-11-12T08:28:56.499Z,58.50
2022-11-12T08:34:20.129Z,58.61
2022-11-12T08:39:32.879Z,57.85
2022-11-12T08:44:43.236Z,58.34
2022-11-12T08:49:53.605Z,59.19
2022-11-12T08:55:04.465Z,59.38
2022-11-12T09:00:15.616Z,60.52
2022-11-12T09:05:26.231Z,61.54
2022-11-12T09:10:42.013Z,62.22
2022-11-12T09:15:52.123Z,61.94
2022-11-12T09:21:05.152Z,63.65
2022-11-12T09:26:15.704Z,63.06
2022-11-12T09:31:26.130Z,62.98
2022-11-12T09:36:39.839Z,63.75
2022-11-12T09:41:50.512Z,63.71
2022-11-12T09:47:12.574Z,63.57
2022-11-12T09:52:27.219Z,64.56
2022-11-12T09:57:37.727Z,63.27
2022-11-12T10:02:57.206Z,63.75
2022-11-12T10:08:22.986Z,63.45
2022-11-12T10:14:04.057Z,63.49
2022-11-12T10:19:19.219Z,62.46
2022-11-12T10:24:35.165Z,62.26
2022-11-12T10:29:56.893Z,61.26
2022-11-12T10:35:07.665Z,60.93
2022-11-12T10:40:20.827Z,60.52
2022-11-12T10:45:32.347Z,60.15
2022-11-12T10:50:43.228Z,60.35
2022-11-12T10:56:00.105Z,60.10
2022-11-12T11:01:17.931Z,60.04
2022-11-12T11:06:28.655Z,59.23
2022-11-12T11:11:49.037Z,58.86
2022-11-12T11:17:08.509Z,58.92
2022-11-12T11:22:37.459Z,58.99
2022-11-12T11:28:08.946Z,58.82
2022-11-12T11:33:48.766Z,59.08
2022-11-12T11:39:22.755Z,58.23
2022-11-12T11:44:36.337Z,58.89
2022-11-12T11:49:56.059Z,57.34
2022-11-12T11:55:27.880Z,58.02
2022-11-12T12:00:47.606Z,58.25
2022-11-12T12:06:11.756Z,58.42
2022-11-12T12:11:45.445Z,59.31
2022-11-12T12:17:06.582Z,58.61
2022-11-12T12:22:24.166Z,58.90
2022-11-12T12:27:38.501Z,58.55
2022-11-12T12:32:59.821Z,59.03
2022-11-12T12:38:29.173Z,58.46
2022-11-12T12:43:53.850Z,58.26
2022-11-12T12:49:07.274Z,58.99
2022-11-12T12:54:52.944Z,57.78
2022-11-12T13:00:29.926Z,57.59
2022-11-12T13:05:42.895Z,57.96
2022-11-12T13:10:53.805Z,57.98
2022-11-12T13:16:04.659Z,58.43
2022-11-12T13:21:17.567Z,57.72
2022-11-12T13:26:44.048Z,57.77
2022-11-12T13:32:35.925Z,57.56
2022-11-12T13:37:57.488Z,56.82
2022-11-12T13:43:17.420Z,57.52
2022-11-12T13:48:34.168Z,57.71
2022-11-12T13:53:44.491Z,57.57
2022-11-12T13:58:55.542Z,57.78
2022-11-12T14:04:07.275Z,57.67
2022-11-12T14:09:23.828Z,58.48
2022-11-12T14:14:47.444Z,58.74
2022-11-12T14:20:08.324Z,59.01
2022-11-12T14:25:21.957Z,59.41
2022-11-12T14:30:32.201Z,59.85
2022-11-12T14:35:42.404Z,59.89
2022-11-12T14:40:55.691Z,60.09
2022-11-12T14:46:08.424Z,60.01
2022-11-12T14:51:19.499Z,59.79
2022-11-12T14:56:47.486Z,60.42
2022-11-12T15:02:31.397Z,60.01
2022-11-12T15:07:53.787Z,60.33
2022-11-12T15:13:11.796Z,60.13
2022-11-12T15:18:26.376Z,60.28
2022-11-12T15:23:36.800Z,60.21
2022-11-12T15:29:27.213Z,59.94
2022-11-12T15:34:40.052Z,60.02
2022-11-12T15:40:03.622Z,60.21
2022-11-12T15:45:21.745Z,60.47
2022-11-12T15:50:32.131Z,60.65
2022-11-12T15:55:44.053Z,60.88
2022-11-12T16:00:54.426Z,61.85
2022-11-12T16:06:09.040Z,61.88
2022-11-12T16:11:38.297Z,62.76
2022-11-12T16:16:48.559Z,62.83
2022-11-12T16:21:58.884Z,63.16
2022-11-12T16:27:16.006Z,63.33
2022-11-12T16:32:26.104Z,63.74
2022-11-12T16:37:38.478Z,63.69
2022-11-12T16:42:48.860Z,63.82
2022-11-12T16:47:59.390Z,64.16
2022-11-12T16:53:12.699Z,63.73
2022-11-12T16:58:23.210Z,63.63
2022-11-12T17:03:33.391Z,63.59
2022-11-12T17:08:46.335Z,63.85
2022-11-12T17:13:56.619Z,63.82
2022-11-12T17:19:07.623Z,64.08
2022-11-12T17:24:18.425Z,64.18
2022-11-12T17:29:28.745Z,64.16
2022-11-12T17:34:39.095Z,63.31
2022-11-12T17:39:49.460Z,62.47
2022-11-12T17:44:59.756Z,63.00
2022-11-12T17:50:10.132Z,62.58
2022-11-12T17:55:20.633Z,63.57
2022-11-12T18:00:31.080Z,63.17
2022-11-12T18:05:41.597Z,61.90
2022-11-12T18:10:52.943Z,61.63
2022-11-12T18:16:14.859Z,61.37
2022-11-12T18:21:26.811Z,60.72
2022-11-12T18:26:37.384Z,61.14
2022-11-12T18:31:48.199Z,61.39
2022-11-12T18:36:58.305Z,61.24
2022-11-12T18:42:08.643Z,60.93
2022-11-12T18:47:18.936Z,60.68
2022-11-12T18:52:29.321Z,61.18
2022-11-12T18:57:39.817Z,60.89
2022-11-12T19:02:50.402Z,61.53
2022-11-12T19:08:00.913Z,61.64
2022-11-12T19:13:13.502Z,62.12
2022-11-12T19:18:24.116Z,62.59
2022-11-12T19:23:34.906Z,62.35
2022-11-12T19:28:45.883Z,63.22
2022-11-12T19:33:56.372Z,63.71
2022-11-12T19:39:06.694Z,63.89
2022-11-12T19:44:16.977Z,64.45
2022-11-12T19:49:27.185Z,64.62
2022-11-12T19:54:40.055Z,65.14
2022-11-12T19:59:50.359Z,65.12
2022-11-12T20:05:00.743Z,65.56
2022-11-12T20:10:12.845Z,65.34
2022-11-12T20:15:23.175Z,65.63
2022-11-12T20:20:33.644Z,66.41
2022-11-12T20:25:44.253Z,67.16
2022-11-12T20:31:03.303Z,67.54
2022-11-12T20:36:16.035Z,68.42
2022-11-12T20:41:26.898Z,68.69
2022-11-12T20:46:37.103Z,68.49
2022-11-12T20:51:47.414Z,68.47
2022-11-12T20:56:59.712Z,68.56
2022-11-12T21:02:10.316Z,69.12
2022-11-12T21:07:20.999Z,69.25
2022-11-12T21:12:31.712Z,70.48
2022-11-12T21:17:42.159Z,71.09
2022-11-12T21:22:52.620Z,71.59
2022-11-12T21:28:03.434Z,71.59
2022-11-12T21:33:13.788Z,71.25
2022-11-12T21:38:24.532Z,71.44
2022-11-12T21:43:39.750Z,71.22
2022-11-12T21:48:54.720Z,71.61
2022-11-12T21:54:07.333Z,71.77
2022-11-12T21:59:17.701Z,72.19
2022-11-12T22:04:28.145Z,72.87
2022-11-12T22:09:38.564Z,72.79
2022-11-12T22:14:48.822Z,73.04
2022-11-12T22:19:59.446Z,73.49
2022-11-12T22:25:09.927Z,73.52
2022-11-12T22:30:20.423Z,73.39
2022-11-12T22:35:30.832Z,73.54
2022-11-12T22:40:41.186Z,73.66
2022-11-12T22:45:51.408Z,73.84
2022-11-12T22:51:03.596Z,73.59
2022-11-12T22:56:16.956Z,73.59
2022-11-12T23:01:29.990Z,73.53
2022-11-12T23:06:40.625Z,73.87
2022-11-12T23:11:50.887Z,74.03
2022-11-12T23:17:02.348Z,73.66
2022-11-12T23:22:12.732Z,73.98
2022-11-12T23:27:23.430Z,73.67
2022-11-12T23:32:34.022Z,74.10
2022-11-12T23:37:44.640Z,74.38
2022-11-12T23:42:55.111Z,74.91
2022-11-12T23:48:05.793Z,75.24
2022-11-12T23:53:16.761Z,75.07
2022-11-12T23:58:28.039Z,75.11
